Time;durP1;ratioP1;P1;durP2;ratioP2;P2;SDS_P1;SDS_P2;PMS_P1;PMS_P2;Temp;Humidity;BMP_temperature;BMP_pressure;BME280_temperature;BME280_humidity;BME280_pressure;Samples;Min_cycle;Max_cycle;Signal;HPM_P1;HPM_P2
2021/12/23 00:00:34;;;;;;;24.60;10.27;;;-0.80;99.90;;;;;;5112543;28;20043;-73
2021/12/23 00:03:00;;;;;;;35.90;14.10;;;-0.80;99.90;;;;;;5112642;28;20391;-72
2021/12/23 00:05:25;;;;;;;33.38;13.38;;;-0.80;99.90;;;;;;5111786;28;20047;-76
2021/12/23 00:07:51;;;;;;;33.42;12.70;;;-0.80;99.90;;;;;;5077390;28;20101;-72
2021/12/23 00:10:17;;;;;;;31.67;12.25;;;-0.70;99.90;;;;;;5094043;28;20404;-73
2021/12/23 00:12:45;;;;;;;31.63;13.18;;;-0.70;99.90;;;;;;5112431;28;20039;-73
2021/12/23 00:15:24;;;;;;;36.60;12.27;;;-0.70;99.90;;;;;;5077531;28;20048;-73
2021/12/23 00:25:33;;;;;;;36.63;13.68;;;-0.60;99.90;;;;;;5112019;28;20131;-71
2021/12/23 00:27:59;;;;;;;30.33;12.93;;;-0.60;99.90;;;;;;5111788;28;20126;-72
2021/12/23 00:30:25;;;;;;;34.38;12.13;;;-0.60;99.90;;;;;;5093842;28;20375;-72
2021/12/23 00:32:51;;;;;;;31.13;12.65;;;-0.60;99.90;;;;;;5113292;28;20457;-72
2021/12/23 00:35:17;;;;;;;25.65;11.13;;;-0.60;99.90;;;;;;5119041;28;20047;-73
2021/12/23 00:37:47;;;;;;;32.22;12.25;;;-0.60;99.90;;;;;;5098654;28;20432;-70
2021/12/23 00:40:13;;;;;;;28.50;11.35;;;-0.50;99.90;;;;;;5115280;28;20526;-71
2021/12/23 00:42:40;;;;;;;35.40;13.27;;;-0.50;99.90;;;;;;5115689;28;20119;-71
2021/12/23 00:45:07;;;;;;;27.70;13.02;;;-0.50;99.90;;;;;;5114805;27;20289;-71
2021/12/23 00:47:33;;;;;;;22.77;8.75;;;-0.60;99.90;;;;;;5080008;28;20083;-72
2021/12/23 00:49:58;;;;;;;33.40;14.00;;;-0.50;99.90;;;;;;5115165;28;20105;-72
2021/12/23 00:52:32;;;;;;;32.15;10.95;;;-0.50;99.90;;;;;;5115263;28;20191;-72
2021/12/23 00:54:58;;;;;;;29.95;11.52;;;-0.60;99.90;;;;;;5115926;28;20055;-72
2021/12/23 00:57:29;;;;;;;32.80;13.30;;;-0.50;99.90;;;;;;5097110;28;20175;-72
2021/12/23 00:59:57;;;;;;;30.25;12.43;;;-0.50;99.90;;;;;;5097029;28;20151;-72
2021/12/23 01:02:31;;;;;;;38.60;13.43;;;-0.40;99.90;;;;;;5115989;28;20096;-72
2021/12/23 01:04:57;;;;;;;29.30;10.30;;;-0.40;99.90;;;;;;5115505;28;20050;-72
2021/12/23 01:07:23;;;;;;;35.20;13.93;;;-0.40;99.90;;;;;;5114910;28;20115;-75
2021/12/23 01:09:49;;;;;;;31.95;13.00;;;-0.40;99.90;;;;;;5097031;28;20151;-72
2021/12/23 01:12:18;;;;;;;34.28;13.35;;;-0.40;99.90;;;;;;5097092;28;20521;-72
2021/12/23 01:15:12;;;;;;;39.35;13.43;;;-0.50;99.90;;;;;;5080387;28;20046;-74
2021/12/23 01:17:59;;;;;;;32.92;12.02;;;-0.40;99.90;;;;;;5115428;28;20083;-72
2021/12/23 01:20:31;;;;;;;33.03;12.40;;;-0.40;99.90;;;;;;5096946;28;20051;-72
2021/12/23 01:23:07;;;;;;;30.20;11.75;;;-0.40;99.90;;;;;;5118255;28;20102;-72
2021/12/23 01:25:34;;;;;;;35.28;13.18;;;-0.40;99.90;;;;;;5115430;28;20379;-72
2021/12/23 01:28:00;;;;;;;29.52;10.43;;;-0.40;99.90;;;;;;5097112;28;20054;-72
2021/12/23 01:30:26;;;;;;;32.75;12.38;;;-0.40;99.90;;;;;;5097348;28;20079;-72
2021/12/23 01:32:56;;;;;;;40.92;13.45;;;-0.30;99.90;;;;;;5115479;28;20040;-72
2021/12/23 01:35:24;;;;;;;26.00;10.10;;;-0.30;99.90;;;;;;5097196;28;20047;-72
2021/12/23 01:37:50;;;;;;;40.30;14.30;;;-0.40;99.90;;;;;;5096983;28;20087;-72
2021/12/23 01:40:18;;;;;;;33.75;13.48;;;-0.40;99.90;;;;;;5114652;28;20458;-72
2021/12/23 01:42:44;;;;;;;36.38;13.73;;;-0.40;99.90;;;;;;5115090;28;20088;-72
2021/12/23 01:45:13;;;;;;;32.75;10.70;;;-0.40;99.90;;;;;;5096083;28;20040;-72
2021/12/23 01:47:39;;;;;;;21.40;8.57;;;-0.40;99.90;;;;;;5114536;28;20075;-72
2021/12/23 01:50:06;;;;;;;28.33;11.60;;;-0.30;99.90;;;;;;5097056;28;20043;-72
2021/12/23 01:52:32;;;;;;;35.20;12.80;;;-0.20;99.90;;;;;;5101427;28;20143;-72
2021/12/23 01:54:57;;;;;;;36.00;14.50;;;-0.30;99.90;;;;;;5101842;28;20079;-72
2021/12/23 01:57:26;;;;;;;33.13;13.30;;;-0.30;99.90;;;;;;5099504;28;20085;-72
2021/12/23 01:59:52;;;;;;;37.65;14.90;;;-0.30;99.90;;;;;;5082092;28;20142;-72
2021/12/23 02:02:18;;;;;;;35.38;12.98;;;-0.30;99.90;;;;;;5119078;28;20151;-72
2021/12/23 02:04:43;;;;;;;38.15;14.23;;;-0.40;99.90;;;;;;5091135;28;20051;-75
2021/12/23 02:07:09;;;;;;;37.33;14.00;;;-0.30;99.90;;;;;;5098330;28;20047;-72
2021/12/23 02:09:35;;;;;;;38.55;14.65;;;-0.30;99.90;;;;;;5095530;28;20056;-72
2021/12/23 02:12:01;;;;;;;39.05;13.30;;;-0.30;99.90;;;;;;5078438;28;20044;-72
2021/12/23 02:14:27;;;;;;;36.20;14.05;;;-0.30;99.90;;;;;;5113703;28;20055;-72
2021/12/23 02:16:53;;;;;;;38.20;14.32;;;-0.30;99.90;;;;;;5112684;27;20440;-72
2021/12/23 02:19:20;;;;;;;33.05;12.98;;;-0.20;99.90;;;;;;5113717;28;20126;-72
2021/12/23 02:21:47;;;;;;;;;;;-0.10;99.90;;;;;;5113861;28;20047;-72
2021/12/23 02:24:13;;;;;;;29.13;11.82;;;-0.10;99.90;;;;;;5095266;28;19966;-72
2021/12/23 02:26:41;;;;;;;34.65;12.65;;;-0.20;99.90;;;;;;5129310;27;20051;-72
2021/12/23 02:29:08;;;;;;;40.22;14.48;;;-0.20;99.90;;;;;;5095204;28;20051;-72
2021/12/23 02:31:34;;;;;;;29.30;11.48;;;-0.20;99.90;;;;;;5129862;27;20047;-72
2021/12/23 02:34:01;;;;;;;31.30;12.05;;;-0.10;99.90;;;;;;5113353;28;20043;-72
2021/12/23 02:36:30;;;;;;;31.35;12.40;;;-0.10;99.90;;;;;;5078025;28;20039;-72
2021/12/23 02:38:56;;;;;;;40.33;14.10;;;-0.10;99.90;;;;;;5113153;28;20048;-72
2021/12/23 02:41:22;;;;;;;35.97;14.00;;;-0.20;99.90;;;;;;5113608;28;20055;-71
2021/12/23 02:43:48;;;;;;;35.42;12.73;;;-0.10;99.90;;;;;;5113528;28;20495;-73
2021/12/23 02:46:17;;;;;;;33.78;13.82;;;-0.10;99.90;;;;;;5094661;28;20130;-72
2021/12/23 02:48:44;;;;;;;37.58;14.38;;;-0.20;99.90;;;;;;5112769;27;20153;-74
2021/12/23 02:51:12;;;;;;;33.60;14.23;;;-0.20;99.90;;;;;;5094946;28;20581;-72
2021/12/23 02:53:40;;;;;;;38.50;14.43;;;-0.30;99.90;;;;;;5094676;28;20062;-72
2021/12/23 02:56:09;;;;;;;37.05;14.68;;;-0.30;99.90;;;;;;5112877;28;20071;-71
2021/12/23 02:58:35;;;;;;;37.47;15.43;;;-0.30;99.90;;;;;;5112765;28;20468;-72
2021/12/23 03:01:06;;;;;;;40.35;15.23;;;-0.30;99.90;;;;;;5112946;28;20099;-71
2021/12/23 03:03:31;;;;;;;41.25;15.15;;;-0.30;99.90;;;;;;5094965;28;20052;-71
2021/12/23 03:05:58;;;;;;;40.22;15.32;;;-0.30;99.90;;;;;;5112744;28;20062;-71
2021/12/23 03:08:37;;;;;;;36.30;15.00;;;-0.30;99.90;;;;;;5095252;28;20051;-71
2021/12/23 03:11:04;;;;;;;34.10;14.80;;;-0.30;99.90;;;;;;5112573;28;20282;-71
2021/12/23 03:13:30;;;;;;;;;;;-0.30;99.90;;;;;;5113333;28;20036;-71
2021/12/23 03:15:56;;;;;;;35.70;13.43;;;-0.30;99.90;;;;;;5112643;28;19927;-70
2021/12/23 03:18:22;;;;;;;36.03;13.98;;;-0.30;99.90;;;;;;5094255;28;20464;-72
2021/12/23 03:20:48;;;;;;;33.60;11.00;;;-0.10;99.90;;;;;;5112720;28;20050;-73
2021/12/23 03:23:14;;;;;;;38.58;14.88;;;-0.10;99.90;;;;;;5094488;28;20490;-72
2021/12/23 03:25:40;;;;;;;41.30;14.80;;;-0.10;99.90;;;;;;5096738;28;20090;-72
2021/12/23 03:28:05;;;;;;;37.92;14.77;;;-0.20;99.90;;;;;;5081002;28;20059;-73
2021/12/23 03:30:31;;;;;;;34.10;14.00;;;-0.20;99.90;;;;;;5115898;28;20088;-71
2021/12/23 03:32:57;;;;;;;39.65;14.07;;;-0.20;99.90;;;;;;5115892;28;20376;-71
2021/12/23 03:35:23;;;;;;;33.13;12.43;;;-0.10;99.90;;;;;;5118702;28;20047;-73
2021/12/23 03:37:48;;;;;;;35.63;13.25;;;-0.10;99.90;;;;;;5099085;28;20066;-75
2021/12/23 03:40:14;;;;;;;33.45;13.90;;;-0.10;99.90;;;;;;5114907;28;20126;-72
2021/12/23 03:42:40;;;;;;;35.00;14.18;;;-0.10;99.90;;;;;;5113134;28;20416;-72
2021/12/23 03:45:08;;;;;;;37.63;15.63;;;-0.10;99.90;;;;;;5079139;28;20051;-72
2021/12/23 03:47:38;;;;;;;43.22;14.50;;;-0.10;99.90;;;;;;5111948;28;20040;-72
2021/12/23 03:50:05;;;;;;;42.30;14.48;;;-0.20;99.90;;;;;;5113579;28;20044;-72
2021/12/23 03:52:31;;;;;;;38.58;13.55;;;-0.20;99.90;;;;;;5112311;28;20414;-70
2021/12/23 03:54:57;;;;;;;37.00;14.10;;;-0.20;99.90;;;;;;5094768;28;20051;-71
2021/12/23 03:57:22;;;;;;;22.60;9.63;;;-0.10;99.90;;;;;;5112996;28;20040;-71
2021/12/23 03:59:48;;;;;;;34.45;13.95;;;-0.10;99.90;;;;;;5077384;28;20475;-74
2021/12/23 04:02:14;;;;;;;36.38;14.23;;;-0.10;99.90;;;;;;5111731;28;20059;-71
2021/12/23 04:04:40;;;;;;;36.17;13.75;;;0.00;99.90;;;;;;5128395;28;20492;-72
2021/12/23 04:07:06;;;;;;;31.20;12.18;;;0.00;99.90;;;;;;5094113;28;20043;-70
2021/12/23 04:09:31;;;;;;;29.95;11.95;;;0.00;99.90;;;;;;5095797;28;20055;-71
2021/12/23 04:11:57;;;;;;;34.28;13.05;;;0.00;99.90;;;;;;5098633;28;20040;-71
2021/12/23 04:14:23;;;;;;;33.38;9.30;;;0.10;99.90;;;;;;5081248;28;20050;-70
2021/12/23 04:16:49;;;;;;;28.23;9.73;;;0.10;99.90;;;;;;5097845;28;20340;-71
2021/12/23 04:19:15;;;;;;;34.38;13.50;;;0.10;99.90;;;;;;5097914;28;20126;-73
2021/12/23 04:21:41;;;;;;;28.50;11.02;;;0.10;99.90;;;;;;5116113;28;20043;-71
2021/12/23 04:24:08;;;;;;;38.42;14.70;;;0.10;99.90;;;;;;5116307;28;20447;-71
2021/12/23 04:26:35;;;;;;;36.25;13.30;;;0.10;99.90;;;;;;5115943;28;20047;-72
2021/12/23 04:29:01;;;;;;;37.30;14.65;;;0.00;99.90;;;;;;5115285;28;20490;-72
2021/12/23 04:31:27;;;;;;;38.38;14.80;;;0.00;99.90;;;;;;5097265;28;20044;-71
2021/12/23 04:33:54;;;;;;;38.63;14.32;;;0.00;99.90;;;;;;5115816;28;20055;-75
2021/12/23 04:36:21;;;;;;;39.47;15.48;;;-0.10;99.90;;;;;;5097570;28;20059;-72
2021/12/23 04:38:47;;;;;;;42.97;15.45;;;-0.10;99.90;;;;;;5116231;28;20062;-73
2021/12/23 04:41:14;;;;;;;40.15;15.45;;;-0.10;99.90;;;;;;5116149;28;20039;-73
2021/12/23 04:43:41;;;;;;;43.70;15.02;;;-0.10;99.90;;;;;;5116041;28;20056;-72
2021/12/23 04:46:07;;;;;;;41.13;16.65;;;-0.10;99.90;;;;;;5115426;28;20368;-72
2021/12/23 04:48:33;;;;;;;38.33;15.30;;;-0.10;99.90;;;;;;5080285;28;20051;-72
2021/12/23 04:51:00;;;;;;;38.20;15.25;;;-0.10;99.90;;;;;;5097178;28;20051;-72
2021/12/23 04:53:26;;;;;;;39.35;16.00;;;-0.10;99.90;;;;;;5115320;28;20348;-72
2021/12/23 04:55:52;;;;;;;38.85;15.65;;;-0.10;99.90;;;;;;5115315;28;20058;-72
2021/12/23 04:58:18;;;;;;;38.63;15.57;;;-0.10;99.90;;;;;;5097247;28;20044;-73
2021/12/23 05:00:48;;;;;;;39.67;16.05;;;-0.10;99.90;;;;;;5115298;28;20048;-71
2021/12/23 05:03:17;;;;;;;41.15;15.98;;;-0.10;99.90;;;;;;5131324;27;20058;-72
2021/12/23 05:05:44;;;;;;;40.92;16.13;;;-0.10;99.90;;;;;;5115221;28;20093;-71
2021/12/23 05:08:11;;;;;;;35.75;14.48;;;-0.10;99.90;;;;;;5098674;28;20055;-72
2021/12/23 05:10:37;;;;;;;39.25;15.40;;;-0.10;99.90;;;;;;5082221;28;20131;-72
2021/12/23 05:13:03;;;;;;;38.70;16.10;;;0.00;99.90;;;;;;5096923;28;20089;-73
2021/12/23 05:15:30;;;;;;;38.28;15.32;;;0.00;99.90;;;;;;5114930;28;20082;-72
2021/12/23 05:17:56;;;;;;;36.55;15.45;;;0.00;99.90;;;;;;5097579;28;20071;-74
2021/12/23 05:20:22;;;;;;;37.22;14.93;;;-0.10;99.90;;;;;;5115770;28;20059;-72
2021/12/23 05:22:48;;;;;;;38.97;15.35;;;0.00;99.90;;;;;;5119033;28;20188;-72
2021/12/23 05:25:14;;;;;;;41.10;15.75;;;0.00;99.90;;;;;;5117084;28;20503;-72
2021/12/23 05:27:40;;;;;;;35.58;14.85;;;0.00;99.90;;;;;;5114982;28;20157;-72
2021/12/23 05:30:11;;;;;;;40.40;16.05;;;0.00;99.90;;;;;;5114553;28;20163;-72
2021/12/23 05:32:37;;;;;;;37.75;15.23;;;0.00;99.90;;;;;;5131188;27;20055;-72
2021/12/23 05:35:04;;;;;;;41.80;17.08;;;0.10;99.90;;;;;;5130505;27;20102;-72
2021/12/23 05:37:29;;;;;;;44.10;16.35;;;0.00;99.90;;;;;;5096496;28;20055;-72
2021/12/23 05:39:55;;;;;;;45.63;16.70;;;0.10;99.90;;;;;;5113687;28;20039;-72
2021/12/23 05:42:21;;;;;;;40.30;16.00;;;0.10;99.90;;;;;;5096810;28;20301;-72
2021/12/23 05:44:46;;;;;;;44.17;16.20;;;0.10;99.90;;;;;;5114177;28;20480;-74
2021/12/23 05:47:12;;;;;;;40.58;16.25;;;0.10;99.90;;;;;;5114088;28;20154;-72
2021/12/23 05:49:38;;;;;;;48.70;16.98;;;0.10;99.90;;;;;;5079962;28;20169;-71
2021/12/23 05:52:04;;;;;;;43.70;16.48;;;0.10;99.90;;;;;;5095336;28;20051;-72
2021/12/23 05:54:30;;;;;;;37.50;15.65;;;0.10;99.90;;;;;;5114243;28;20055;-72
2021/12/23 05:57:02;;;;;;;42.85;16.88;;;0.10;99.90;;;;;;5095874;28;20102;-72
2021/12/23 05:59:32;;;;;;;45.85;16.38;;;0.10;99.90;;;;;;5114348;28;20051;-72
2021/12/23 06:01:58;;;;;;;44.10;17.20;;;0.10;99.90;;;;;;5095754;28;20496;-72
2021/12/23 06:04:24;;;;;;;39.93;15.67;;;0.10;99.90;;;;;;5113266;28;20051;-71
2021/12/23 06:06:50;;;;;;;43.72;17.27;;;0.10;99.90;;;;;;5095694;28;20040;-72
2021/12/23 06:09:16;;;;;;;42.47;16.20;;;0.10;99.90;;;;;;5095824;28;20055;-73
2021/12/23 06:11:42;;;;;;;46.67;17.48;;;0.10;99.90;;;;;;5113766;28;20101;-71
2021/12/23 06:14:07;;;;;;;43.90;16.10;;;0.10;99.90;;;;;;5096036;28;20048;-72
2021/12/23 06:16:33;;;;;;;42.60;16.17;;;0.20;99.90;;;;;;5129569;27;20047;-72
2021/12/23 06:18:59;;;;;;;43.60;16.35;;;0.20;99.90;;;;;;5078632;28;20049;-72
2021/12/23 06:21:28;;;;;;;44.03;17.35;;;0.20;99.90;;;;;;5113492;28;20082;-71
2021/12/23 06:23:55;;;;;;;46.85;17.35;;;0.30;99.90;;;;;;5129275;27;20047;-72
2021/12/23 06:26:21;;;;;;;48.70;17.80;;;0.20;99.90;;;;;;5112103;28;20040;-72
2021/12/23 06:28:48;;;;;;;50.10;16.93;;;0.20;99.90;;;;;;5113453;28;20122;-73
2021/12/23 06:31:13;;;;;;;46.85;17.75;;;0.20;99.90;;;;;;5129116;27;20052;-73
2021/12/23 06:33:39;;;;;;;46.13;17.25;;;0.20;99.90;;;;;;5095311;28;20103;-72
2021/12/23 06:36:05;;;;;;;45.58;17.70;;;0.20;99.90;;;;;;5078408;28;20359;-74
2021/12/23 06:38:31;;;;;;;50.08;18.52;;;0.20;99.90;;;;;;5095825;28;20044;-72
2021/12/23 06:40:58;;;;;;;46.70;17.02;;;0.20;99.90;;;;;;5113911;28;20051;-72
2021/12/23 06:43:23;;;;;;;50.90;18.13;;;0.30;99.90;;;;;;5113480;28;20055;-73
2021/12/23 06:45:49;;;;;;;47.05;17.90;;;0.30;99.90;;;;;;5095072;28;20035;-73
2021/12/23 06:48:15;;;;;;;51.50;18.02;;;0.20;99.90;;;;;;5078215;28;20054;-73
2021/12/23 06:50:42;;;;;;;54.20;19.08;;;0.20;99.90;;;;;;5113931;28;20086;-75
2021/12/23 06:53:08;;;;;;;51.40;18.77;;;0.20;99.90;;;;;;5091173;28;20109;-75
2021/12/23 06:55:34;;;;;;;49.25;18.10;;;0.20;99.90;;;;;;5075015;28;20036;-72
2021/12/23 06:58:00;;;;;;;52.20;19.58;;;0.20;99.90;;;;;;5092285;28;20181;-72
2021/12/23 07:00:28;;;;;;;52.58;18.83;;;0.20;99.90;;;;;;5092516;28;20044;-71
2021/12/23 07:02:54;;;;;;;49.25;18.95;;;0.20;99.90;;;;;;5092933;28;20456;-71
2021/12/23 07:05:22;;;;;;;47.65;18.67;;;0.20;99.90;;;;;;5091881;28;20052;-72
2021/12/23 07:10:17;;;;;;;43.00;17.05;;;0.20;99.90;;;;;;5093317;28;20040;-73
2021/12/23 07:12:43;;;;;;;54.28;20.45;;;0.20;99.90;;;;;;5093252;28;20475;-73
2021/12/23 07:15:09;;;;;;;46.22;17.17;;;0.30;99.90;;;;;;5091308;28;20147;-73
2021/12/23 07:17:35;;;;;;;51.70;20.85;;;0.20;99.90;;;;;;5092120;28;20040;-73
2021/12/23 07:20:03;;;;;;;46.27;18.80;;;0.20;99.90;;;;;;5092154;28;20055;-72
2021/12/23 07:22:28;;;;;;;50.50;20.30;;;0.20;99.90;;;;;;5091196;28;20054;-72
2021/12/23 07:24:54;;;;;;;50.55;19.88;;;0.20;99.90;;;;;;5091014;28;20044;-72
2021/12/23 07:27:21;;;;;;;47.88;18.05;;;0.20;99.90;;;;;;5091269;28;20040;-72
2021/12/23 07:29:47;;;;;;;47.00;18.55;;;0.20;99.90;;;;;;5090914;28;20109;-74
2021/12/23 07:32:12;;;;;;;48.08;19.00;;;0.30;99.90;;;;;;5092119;28;20044;-72
2021/12/23 07:34:40;;;;;;;46.55;17.80;;;0.20;99.90;;;;;;5091402;28;20056;-73
2021/12/23 07:37:06;;;;;;;47.70;18.08;;;0.20;99.90;;;;;;5091002;28;20119;-72
2021/12/23 07:39:32;;;;;;;45.50;18.88;;;0.20;99.90;;;;;;5090793;28;20510;-72
2021/12/23 07:41:58;;;;;;;46.72;18.83;;;0.20;99.90;;;;;;5074474;28;20052;-72
2021/12/23 07:44:24;;;;;;;49.30;18.83;;;0.20;99.90;;;;;;5092662;28;20139;-71
2021/12/23 07:46:50;;;;;;;49.60;19.70;;;0.30;99.90;;;;;;5096735;28;20044;-71
2021/12/23 07:49:17;;;;;;;53.30;20.95;;;0.20;99.90;;;;;;5096848;28;20084;-71
2021/12/23 07:51:43;;;;;;;49.65;19.20;;;0.30;99.90;;;;;;5098528;28;20055;-72
2021/12/23 07:54:09;;;;;;;54.83;18.98;;;0.30;99.90;;;;;;5118301;28;20054;-73
2021/12/23 07:56:35;;;;;;;47.13;18.13;;;0.30;99.90;;;;;;5099461;28;20043;-72
2021/12/23 07:59:00;;;;;;;51.65;20.52;;;0.30;99.90;;;;;;5117943;28;20128;-71
2021/12/23 08:01:26;;;;;;;52.72;21.05;;;0.30;99.90;;;;;;5082259;28;20471;-73
2021/12/23 08:03:52;;;;;;;46.75;18.55;;;0.20;99.90;;;;;;5100014;28;20062;-72
2021/12/23 08:06:18;;;;;;;50.90;19.55;;;0.30;99.90;;;;;;5081896;28;20050;-72
2021/12/23 08:08:44;;;;;;;54.08;20.63;;;0.30;99.90;;;;;;5116558;28;20369;-72
2021/12/23 08:11:10;;;;;;;54.08;19.70;;;0.30;99.90;;;;;;5098118;28;20047;-72
2021/12/23 08:13:36;;;;;;;57.45;20.73;;;0.30;99.90;;;;;;5081244;28;20046;-73
2021/12/23 08:16:03;;;;;;;52.72;19.17;;;0.30;99.90;;;;;;5116637;28;20072;-72
2021/12/23 08:18:30;;;;;;;56.85;21.02;;;0.30;99.90;;;;;;5098563;28;20051;-73
2021/12/23 08:20:56;;;;;;;60.03;22.23;;;0.30;99.90;;;;;;5116766;28;20052;-73
2021/12/23 08:23:22;;;;;;;57.97;21.10;;;0.30;99.90;;;;;;5132993;27;20467;-73
2021/12/23 08:25:48;;;;;;;54.80;20.48;;;0.40;99.90;;;;;;5120593;28;20044;-73
2021/12/23 08:28:14;;;;;;;54.92;20.35;;;0.30;99.90;;;;;;5132990;27;20051;-75
2021/12/23 08:30:41;;;;;;;54.67;21.10;;;0.30;99.90;;;;;;5098098;28;20067;-73
2021/12/23 08:33:08;;;;;;;51.90;20.65;;;0.40;99.90;;;;;;5116576;28;20070;-74
2021/12/23 08:35:35;;;;;;;59.70;23.00;;;0.40;99.90;;;;;;5116473;28;20036;-74
2021/12/23 08:38:02;;;;;;;;;;;0.30;99.90;;;;;;5118510;28;20051;-74
2021/12/23 08:40:29;;;;;;;51.38;19.00;;;0.30;99.90;;;;;;5097705;28;19927;-73
2021/12/23 08:42:56;;;;;;;;;;;0.30;99.90;;;;;;5116156;28;20130;-73
2021/12/23 08:45:23;;;;;;;61.45;22.38;;;0.30;99.90;;;;;;5116108;28;19919;-74
2021/12/23 08:47:50;;;;;;;56.15;20.25;;;0.30;99.90;;;;;;5098631;28;20092;-73
2021/12/23 08:50:18;;;;;;;62.50;22.52;;;0.30;99.90;;;;;;5116101;28;20059;-75
2021/12/23 08:52:43;;;;;;;;;;;0.40;99.90;;;;;;5131849;27;20560;-74
2021/12/23 08:55:10;;;;;;;63.42;23.98;;;0.40;99.90;;;;;;5115326;28;19963;-74
2021/12/23 08:57:36;;;;;;;62.25;20.98;;;0.30;99.90;;;;;;5130743;28;20178;-73
2021/12/23 09:00:09;;;;;;;58.78;22.13;;;0.30;99.90;;;;;;5114564;28;20122;-73
2021/12/23 09:02:35;;;;;;;64.40;23.23;;;0.30;99.90;;;;;;5095688;28;20048;-72
2021/12/23 09:05:00;;;;;;;56.25;20.13;;;0.30;99.90;;;;;;5095897;28;20039;-71
2021/12/23 09:07:26;;;;;;;66.35;26.95;;;0.30;99.90;;;;;;5113928;28;20039;-72
2021/12/23 09:09:52;;;;;;;62.13;20.75;;;0.30;99.90;;;;;;5114889;28;20043;-74
2021/12/23 09:12:20;;;;;;;66.57;23.77;;;0.40;99.90;;;;;;5114385;28;20059;-76
2021/12/23 09:14:46;;;;;;;67.88;23.52;;;0.40;99.90;;;;;;5097371;28;20472;-73
2021/12/23 09:17:13;;;;;;;62.83;22.60;;;0.40;99.90;;;;;;5097526;28;20043;-73
2021/12/23 09:19:40;;;;;;;85.15;23.17;;;0.40;99.90;;;;;;5113852;28;20478;-73
2021/12/23 09:22:08;;;;;;;63.63;24.20;;;0.40;99.90;;;;;;5096698;28;20508;-74
2021/12/23 09:24:37;;;;;;;67.72;24.50;;;0.40;99.90;;;;;;5115340;28;20057;-73
2021/12/23 09:27:19;;;;;;;68.35;23.58;;;0.50;99.90;;;;;;5115551;28;20131;-74
2021/12/23 09:35:00;;;;;;;67.60;24.42;;;0.50;99.90;;;;;;5115520;28;20064;-72
2021/12/23 09:37:28;;;;;;;66.05;24.27;;;0.50;99.90;;;;;;5131386;28;20116;-73
2021/12/23 09:39:57;;;;;;;69.93;25.35;;;0.50;99.90;;;;;;5115832;28;20533;-74
2021/12/23 09:42:26;;;;;;;68.10;22.63;;;0.50;99.90;;;;;;5081390;28;20047;-76
2021/12/23 09:44:57;;;;;;;69.40;24.30;;;0.50;99.90;;;;;;5132383;28;20044;-73
2021/12/23 09:47:27;;;;;;;67.63;24.08;;;0.60;99.90;;;;;;5114724;28;20191;-74
2021/12/23 09:49:55;;;;;;;67.93;24.02;;;0.60;99.90;;;;;;5115873;28;20061;-73
2021/12/23 09:52:22;;;;;;;68.45;24.17;;;0.60;99.90;;;;;;5073827;28;1142155;-72
2021/12/23 09:54:48;;;;;;;68.72;23.77;;;0.60;99.90;;;;;;5080760;28;20058;-72
2021/12/23 09:57:15;;;;;;;69.57;24.80;;;0.60;99.90;;;;;;5114503;28;20140;-72
2021/12/23 09:59:43;;;;;;;66.23;24.67;;;0.70;99.90;;;;;;5095525;28;20055;-72
2021/12/23 10:02:10;;;;;;;68.22;23.55;;;0.70;99.90;;;;;;5096200;28;20346;-72
2021/12/23 10:04:36;;;;;;;70.70;25.13;;;0.70;99.90;;;;;;5114011;28;20047;-73
2021/12/23 10:07:03;;;;;;;71.13;25.15;;;0.80;99.90;;;;;;5094786;28;20046;-72
2021/12/23 10:10:17;;;;;;;68.80;25.17;;;0.80;99.90;;;;;;5113197;28;20039;-71
2021/12/23 10:31:19;;;;;;;70.35;24.98;;;1.00;99.90;;;;;;5113628;28;20058;-72
2021/12/23 10:37:05;;;;;;;71.55;24.25;;;1.00;99.90;;;;;;5098491;28;20223;-74
2021/12/23 10:39:24;;;;;;;71.18;25.30;;;1.00;99.90;;;;;;5095114;28;20055;-71
2021/12/23 10:41:50;;;;;;;70.55;25.95;;;1.00;99.90;;;;;;5129214;27;20119;-71
2021/12/23 10:44:29;;;;;;;71.15;25.92;;;1.00;99.90;;;;;;5094912;28;20170;-70
2021/12/23 10:46:55;;;;;;;72.70;24.17;;;0.90;99.90;;;;;;5094645;28;20123;-72
2021/12/23 10:49:43;;;;;;;74.35;25.17;;;1.00;99.90;;;;;;5113181;28;20067;-71
2021/12/23 10:52:19;;;;;;;71.03;24.63;;;1.00;99.90;;;;;;5091089;28;20151;-71
2021/12/23 11:00:48;;;;;;;71.05;24.25;;;1.00;99.90;;;;;;5092066;28;20060;-70
2021/12/23 11:03:34;;;;;;;72.05;25.20;;;1.00;99.90;;;;;;5092717;28;20055;-70
2021/12/23 11:06:32;;;;;;;76.45;24.73;;;1.00;99.90;;;;;;5092117;28;20475;-74
2021/12/23 11:09:18;;;;;;;61.42;21.38;;;1.00;99.90;;;;;;5092176;28;20108;-71
2021/12/23 11:40:06;;;;;;;69.47;23.90;;;1.30;99.90;;;;;;5091312;28;20044;-71
2021/12/23 11:42:34;;;;;;;85.00;26.20;;;1.30;99.90;;;;;;5090263;28;20052;-73
2021/12/23 11:45:01;;;;;;;69.07;25.20;;;1.40;99.90;;;;;;5090955;28;20055;-72
2021/12/23 11:47:27;;;;;;;80.03;26.92;;;1.30;99.90;;;;;;5093353;28;20114;-73
2021/12/23 11:49:53;;;;;;;82.90;27.02;;;1.30;99.90;;;;;;5092335;28;20074;-73
2021/12/23 11:52:19;;;;;;;77.57;29.00;;;1.20;99.90;;;;;;5098358;28;20056;-71
2021/12/23 11:54:47;;;;;;;83.80;24.98;;;1.30;99.90;;;;;;5129100;28;20124;-73
2021/12/23 11:57:18;;;;;;;76.88;26.13;;;1.30;99.90;;;;;;5077664;28;20044;-71
2021/12/23 12:00:01;;;;;;;77.63;27.65;;;1.30;99.90;;;;;;5129634;28;20047;-73
2021/12/23 12:02:29;;;;;;;70.65;24.35;;;1.30;99.90;;;;;;5112533;28;20058;-72
2021/12/23 12:05:00;;;;;;;71.07;25.02;;;1.30;99.90;;;;;;5112142;28;20040;-72
2021/12/23 12:07:26;;;;;;;72.55;26.30;;;1.30;99.90;;;;;;5112495;28;20067;-71
2021/12/23 12:09:59;;;;;;;76.78;25.42;;;1.30;99.90;;;;;;5094112;28;20452;-70
2021/12/23 12:12:25;;;;;;;76.18;25.90;;;1.30;99.90;;;;;;5128382;28;20048;-72
2021/12/23 12:14:55;;;;;;;73.00;25.73;;;1.30;99.90;;;;;;5111937;28;20043;-70
2021/12/23 12:17:23;;;;;;;74.82;27.45;;;1.30;99.90;;;;;;5093861;28;20039;-70
2021/12/23 12:19:57;;;;;;;70.03;23.67;;;1.20;99.90;;;;;;5112013;28;20457;-71
2021/12/23 12:22:48;;;;;;;73.00;26.25;;;1.20;99.90;;;;;;5112522;28;20040;-70
2021/12/23 12:25:23;;;;;;;77.13;26.08;;;1.20;99.90;;;;;;5111654;28;20081;-70
2021/12/23 12:27:55;;;;;;;77.63;27.05;;;1.20;99.90;;;;;;5128741;28;20096;-72
2021/12/23 12:30:34;;;;;;;77.50;24.85;;;1.30;99.90;;;;;;5114115;28;20057;-70
2021/12/23 12:33:20;;;;;;;73.28;25.10;;;1.30;99.90;;;;;;5116101;28;20048;-70
2021/12/23 12:36:02;;;;;;;70.65;25.80;;;1.30;99.90;;;;;;5116103;28;20043;-71
2021/12/23 12:38:32;;;;;;;72.13;23.20;;;1.30;99.90;;;;;;5116083;28;20048;-71
2021/12/23 12:41:05;;;;;;;73.57;27.10;;;1.20;99.90;;;;;;5115617;28;20403;-71
2021/12/23 12:43:37;;;;;;;79.13;26.98;;;1.30;99.90;;;;;;5080918;28;20050;-72
2021/12/23 12:46:03;;;;;;;82.60;28.27;;;1.30;99.90;;;;;;5097119;28;20054;-71
2021/12/23 12:49:09;;;;;;;75.30;25.48;;;1.30;99.90;;;;;;5097352;28;20055;-70
2021/12/23 12:51:37;;;;;;;76.70;26.83;;;1.30;99.90;;;;;;5074004;28;20104;-70
2021/12/23 12:54:09;;;;;;;74.45;26.50;;;1.20;99.90;;;;;;5131384;27;20281;-71
2021/12/23 12:56:42;;;;;;;73.65;25.92;;;1.20;99.90;;;;;;5081453;28;20139;-71
2021/12/23 12:59:10;;;;;;;76.60;28.58;;;1.20;99.90;;;;;;5115757;28;20075;-71
2021/12/23 13:01:44;;;;;;;71.88;25.05;;;1.20;99.90;;;;;;5115156;28;20044;-69
2021/12/23 13:04:28;;;;;;;76.07;26.00;;;1.10;99.90;;;;;;5115931;28;20066;-71
2021/12/23 13:06:56;;;;;;;68.57;24.83;;;1.20;99.90;;;;;;5116501;28;20047;-70
2021/12/23 13:09:36;;;;;;;80.13;25.75;;;1.10;99.90;;;;;;5096996;28;20059;-72
2021/12/23 13:12:03;;;;;;;82.38;27.80;;;1.20;99.90;;;;;;5115501;28;20043;-70
2021/12/23 13:14:58;;;;;;;78.88;26.27;;;1.10;99.90;;;;;;5115772;28;20054;-70
2021/12/23 13:17:41;;;;;;;75.38;24.80;;;1.20;99.90;;;;;;5117975;28;20528;-71
2021/12/23 13:20:08;;;;;;;69.35;24.27;;;1.20;99.90;;;;;;5096797;28;20217;-70
2021/12/23 13:22:34;;;;;;;81.93;28.13;;;1.20;99.90;;;;;;5079739;28;20040;-74
2021/12/23 13:25:03;;;;;;;78.90;26.07;;;1.20;99.90;;;;;;5116423;28;20375;-71
2021/12/23 13:27:29;;;;;;;82.53;25.50;;;1.20;99.90;;;;;;5096830;28;20118;-70
2021/12/23 13:30:08;;;;;;;73.25;25.00;;;1.30;99.90;;;;;;5131330;27;20140;-72
2021/12/23 13:32:34;;;;;;;73.55;22.60;;;1.30;99.90;;;;;;5130597;27;20047;-70
2021/12/23 13:35:14;;;;;;;73.80;24.67;;;1.30;99.90;;;;;;5096527;28;20050;-73
2021/12/23 13:37:45;;;;;;;70.53;25.67;;;1.40;99.90;;;;;;5119984;28;20095;-72
2021/12/23 13:40:24;;;;;;;76.57;25.40;;;1.40;99.90;;;;;;5091867;28;20048;-71
2021/12/23 13:42:50;;;;;;;77.15;26.50;;;1.40;99.90;;;;;;5137273;27;20058;-71
2021/12/23 13:45:16;;;;;;;70.10;23.25;;;1.40;99.90;;;;;;5120465;28;20044;-72
2021/12/23 13:47:41;;;;;;;75.47;25.77;;;1.40;99.90;;;;;;5101840;28;20039;-70
2021/12/23 13:50:08;;;;;;;70.10;25.58;;;1.40;99.90;;;;;;5101192;28;20052;-70
2021/12/23 13:52:34;;;;;;;74.55;25.33;;;1.50;99.90;;;;;;5138954;27;20056;-71